メインページ
METAR-TAF:

METAR-TAF

空港 :

花巻空港

花巻, 日本

緯度: 39-26N, 経度: 141-08E, 海抜: 90m

現時点の気象観測

当レポートは33分前の08:00(UTC)に作成
南/南西の風 5kt
気温 2°C
湿度 75%
気圧 1019 hPa
視程10km以上
高度1500ftの雲はほとんどない
高度3000ftの雲は散在している
高度5000ftの千切れ雲あり
弱いにわか雪

METAR: RJSI 130800Z 20005KT 9999 -SHSN FEW015 SCT030 BKN050 02/M02 Q1019

時間: 17:33 (08:33 UTC)


TAF: 見つかりません

4,000以上の空港の気象観測と天気予報(METAR報とTAF報)

利用可能な観測所は地図上に黄色い丸と赤い丸で示す。

丸の上にカーソルを重ねると観測所名を参照できる。

次にクリックすると気象観測と天気予報を参照できる。

マップの切り替え:黒色「×」印の緑ボタンをクリックして拡大、「-」印の緑ボタンをクリックして縮小、緑色の三角印をクリックして隣りの地図に切り替え


METAR-TAF: